sensor_id;sensor_type;location;lat;lon;timestamp;temperature;humidity
19728;DHT22;10015;52.530;13.390;2023-05-10T00:00:27;14.00;99.90
19728;DHT22;10015;52.530;13.390;2023-05-10T00:02:53;13.90;99.90
19728;DHT22;10015;52.530;13.390;2023-05-10T00:05:19;13.90;99.90
19728;DHT22;10015;52.530;13.390;2023-05-10T00:07:45;13.90;99.90
19728;DHT22;10015;52.530;13.390;2023-05-10T00:10:11;13.80;99.90
19728;DHT22;10015;52.530;13.390;2023-05-10T00:12:37;13.70;99.90
19728;DHT22;10015;52.530;13.390;2023-05-10T00:15:03;13.80;99.90
19728;DHT22;10015;52.530;13.390;2023-05-10T00:17:29;13.70;99.90
19728;DHT22;10015;52.530;13.390;2023-05-10T00:19:55;13.80;99.90
19728;DHT22;10015;52.530;13.390;2023-05-10T00:22:21;13.70;99.90
19728;DHT22;10015;52.530;13.390;2023-05-10T00:24:47;13.70;99.90
19728;DHT22;10015;52.530;13.390;2023-05-10T00:27:13;13.70;99.90
19728;DHT22;10015;52.530;13.390;2023-05-10T00:29:39;13.60;99.90
19728;DHT22;10015;52.530;13.390;2023-05-10T00:32:05;13.60;99.90
19728;DHT22;10015;52.530;13.390;2023-05-10T00:34:31;13.60;99.90
19728;DHT22;10015;52.530;13.390;2023-05-10T00:36:57;13.60;99.90
19728;DHT22;10015;52.530;13.390;2023-05-10T00:39:23;13.60;99.90
19728;DHT22;10015;52.530;13.390;2023-05-10T00:41:49;13.70;99.90
19728;DHT22;10015;52.530;13.390;2023-05-10T00:44:16;13.70;99.90
19728;DHT22;10015;52.530;13.390;2023-05-10T00:46:44;13.60;99.90
19728;DHT22;10015;52.530;13.390;2023-05-10T00:49:11;13.50;99.90
19728;DHT22;10015;52.530;13.390;2023-05-10T00:51:37;13.50;99.90
19728;DHT22;10015;52.530;13.390;2023-05-10T00:54:03;13.50;99.90
19728;DHT22;10015;52.530;13.390;2023-05-10T00:56:29;13.50;99.90
19728;DHT22;10015;52.530;13.390;2023-05-10T00:58:55;13.40;99.90
19728;DHT22;10015;52.530;13.390;2023-05-10T01:01:22;13.30;99.90
19728;DHT22;10015;52.530;13.390;2023-05-10T01:03:48;13.20;99.90
19728;DHT22;10015;52.530;13.390;2023-05-10T01:06:15;13.10;99.90
19728;DHT22;10015;52.530;13.390;2023-05-10T01:08:41;13.00;99.90
19728;DHT22;10015;52.530;13.390;2023-05-10T01:11:07;13.10;99.90
19728;DHT22;10015;52.530;13.390;2023-05-10T01:13:36;13.20;99.90
19728;DHT22;10015;52.530;13.390;2023-05-10T01:16:04;13.20;99.90
19728;DHT22;10015;52.530;13.390;2023-05-10T01:18:36;13.10;99.90
19728;DHT22;10015;52.530;13.390;2023-05-10T01:21:32;13.00;99.90
19728;DHT22;10015;52.530;13.390;2023-05-10T01:27:17;12.90;99.90
19728;DHT22;10015;52.530;13.390;2023-05-10T01:29:57;12.80;99.90
19728;DHT22;10015;52.530;13.390;2023-05-10T01:35:26;12.70;99.90
19728;DHT22;10015;52.530;13.390;2023-05-10T01:38:04;12.50;99.90
19728;DHT22;10015;52.530;13.390;2023-05-10T01:43:26;12.50;99.90
19728;DHT22;10015;52.530;13.390;2023-05-10T01:46:02;12.50;99.90
19728;DHT22;10015;52.530;13.390;2023-05-10T01:48:31;12.50;99.90
19728;DHT22;10015;52.530;13.390;2023-05-10T01:50:59;12.50;99.90
19728;DHT22;10015;52.530;13.390;2023-05-10T01:53:27;12.50;99.90
19728;DHT22;10015;52.530;13.390;2023-05-10T01:55:55;12.40;99.90
19728;DHT22;10015;52.530;13.390;2023-05-10T01:58:29;12.30;99.90
19728;DHT22;10015;52.530;13.390;2023-05-10T02:00:59;12.40;99.90
19728;DHT22;10015;52.530;13.390;2023-05-10T02:03:27;12.50;99.90
19728;DHT22;10015;52.530;13.390;2023-05-10T02:05:54;12.30;99.90
19728;DHT22;10015;52.530;13.390;2023-05-10T02:08:22;12.30;99.90
19728;DHT22;10015;52.530;13.390;2023-05-10T02:10:51;12.30;99.90
19728;DHT22;10015;52.530;13.390;2023-05-10T02:13:18;12.30;99.90
19728;DHT22;10015;52.530;13.390;2023-05-10T02:15:48;12.10;99.90
19728;DHT22;10015;52.530;13.390;2023-05-10T02:18:14;12.00;99.90
19728;DHT22;10015;52.530;13.390;2023-05-10T02:20:42;12.10;99.90
19728;DHT22;10015;52.530;13.390;2023-05-10T02:23:10;12.10;99.90
19728;DHT22;10015;52.530;13.390;2023-05-10T02:25:37;12.20;99.90
19728;DHT22;10015;52.530;13.390;2023-05-10T02:28:06;12.20;99.90
19728;DHT22;10015;52.530;13.390;2023-05-10T02:30:33;12.10;99.90
19728;DHT22;10015;52.530;13.390;2023-05-10T02:33:01;12.10;99.90
19728;DHT22;10015;52.530;13.390;2023-05-10T02:35:28;12.00;99.90
19728;DHT22;10015;52.530;13.390;2023-05-10T02:37:56;12.00;99.90
19728;DHT22;10015;52.530;13.390;2023-05-10T02:40:23;12.00;99.90
19728;DHT22;10015;52.530;13.390;2023-05-10T02:42:52;12.00;99.90
19728;DHT22;10015;52.530;13.390;2023-05-10T02:45:23;11.90;99.90
19728;DHT22;10015;52.530;13.390;2023-05-10T02:47:50;11.80;99.90
19728;DHT22;10015;52.530;13.390;2023-05-10T02:50:16;11.80;99.90
19728;DHT22;10015;52.530;13.390;2023-05-10T02:52:51;11.80;99.90
19728;DHT22;10015;52.530;13.390;2023-05-10T02:55:23;11.90;99.90
19728;DHT22;10015;52.530;13.390;2023-05-10T02:58:00;11.80;99.90
19728;DHT22;10015;52.530;13.390;2023-05-10T03:00:26;11.80;99.90
19728;DHT22;10015;52.530;13.390;2023-05-10T03:02:53;11.90;99.90
19728;DHT22;10015;52.530;13.390;2023-05-10T03:05:19;11.90;99.90
19728;DHT22;10015;52.530;13.390;2023-05-10T03:07:46;12.00;99.90
19728;DHT22;10015;52.530;13.390;2023-05-10T03:10:13;11.90;99.90
19728;DHT22;10015;52.530;13.390;2023-05-10T03:18:36;11.70;99.90
19728;DHT22;10015;52.530;13.390;2023-05-10T03:21:07;11.70;99.90
19728;DHT22;10015;52.530;13.390;2023-05-10T03:23:47;11.70;99.90
19728;DHT22;10015;52.530;13.390;2023-05-10T03:26:28;11.70;99.90
19728;DHT22;10015;52.530;13.390;2023-05-10T03:29:05;11.60;99.90
19728;DHT22;10015;52.530;13.390;2023-05-10T03:31:32;11.50;99.90
19728;DHT22;10015;52.530;13.390;2023-05-10T03:33:59;11.50;99.90
19728;DHT22;10015;52.530;13.390;2023-05-10T03:36:26;11.60;99.90
19728;DHT22;10015;52.530;13.390;2023-05-10T03:38:53;11.50;99.90
19728;DHT22;10015;52.530;13.390;2023-05-10T03:41:18;11.50;99.90
19728;DHT22;10015;52.530;13.390;2023-05-10T03:43:46;11.30;99.90
19728;DHT22;10015;52.530;13.390;2023-05-10T03:46:12;11.30;99.90
19728;DHT22;10015;52.530;13.390;2023-05-10T03:48:38;11.30;99.90
19728;DHT22;10015;52.530;13.390;2023-05-10T03:51:04;11.20;99.90
19728;DHT22;10015;52.530;13.390;2023-05-10T03:53:30;11.30;99.90
19728;DHT22;10015;52.530;13.390;2023-05-10T03:55:56;11.20;99.90
19728;DHT22;10015;52.530;13.390;2023-05-10T03:58:23;11.20;99.90
19728;DHT22;10015;52.530;13.390;2023-05-10T04:00:49;11.20;99.90
19728;DHT22;10015;52.530;13.390;2023-05-10T04:03:15;11.20;99.90
19728;DHT22;10015;52.530;13.390;2023-05-10T04:05:41;11.10;99.90
19728;DHT22;10015;52.530;13.390;2023-05-10T04:08:06;11.20;99.90
19728;DHT22;10015;52.530;13.390;2023-05-10T04:10:32;11.10;99.90
19728;DHT22;10015;52.530;13.390;2023-05-10T04:12:58;11.20;99.90
19728;DHT22;10015;52.530;13.390;2023-05-10T04:15:24;11.10;99.90
19728;DHT22;10015;52.530;13.390;2023-05-10T04:17:50;11.20;99.90
19728;DHT22;10015;52.530;13.390;2023-05-10T04:20:16;11.30;99.90
19728;DHT22;10015;52.530;13.390;2023-05-10T04:22:42;11.30;99.90
19728;DHT22;10015;52.530;13.390;2023-05-10T04:25:09;11.30;99.90
19728;DHT22;10015;52.530;13.390;2023-05-10T04:27:34;11.30;99.90
19728;DHT22;10015;52.530;13.390;2023-05-10T04:30:00;11.30;99.90
19728;DHT22;10015;52.530;13.390;2023-05-10T04:32:26;11.30;99.90
19728;DHT22;10015;52.530;13.390;2023-05-10T04:34:52;11.30;99.90
19728;DHT22;10015;52.530;13.390;2023-05-10T04:37:18;11.30;99.90
19728;DHT22;10015;52.530;13.390;2023-05-10T04:39:45;11.30;99.90
19728;DHT22;10015;52.530;13.390;2023-05-10T04:42:11;11.40;99.90
19728;DHT22;10015;52.530;13.390;2023-05-10T04:44:37;11.50;99.90
19728;DHT22;10015;52.530;13.390;2023-05-10T04:47:03;11.50;99.90
19728;DHT22;10015;52.530;13.390;2023-05-10T04:49:29;11.60;99.90
19728;DHT22;10015;52.530;13.390;2023-05-10T04:51:55;11.70;99.90
19728;DHT22;10015;52.530;13.390;2023-05-10T04:54:21;11.80;99.90
19728;DHT22;10015;52.530;13.390;2023-05-10T04:56:47;11.90;99.90
19728;DHT22;10015;52.530;13.390;2023-05-10T04:59:13;11.90;99.90
19728;DHT22;10015;52.530;13.390;2023-05-10T05:01:39;12.00;99.90
19728;DHT22;10015;52.530;13.390;2023-05-10T05:04:05;12.10;99.90
19728;DHT22;10015;52.530;13.390;2023-05-10T05:06:32;12.20;99.90
19728;DHT22;10015;52.530;13.390;2023-05-10T05:08:58;12.40;99.90
19728;DHT22;10015;52.530;13.390;2023-05-10T05:11:24;12.50;99.90
19728;DHT22;10015;52.530;13.390;2023-05-10T05:13:51;12.50;99.90
19728;DHT22;10015;52.530;13.390;2023-05-10T05:16:17;12.60;99.90
19728;DHT22;10015;52.530;13.390;2023-05-10T05:18:43;12.80;99.90
19728;DHT22;10015;52.530;13.390;2023-05-10T05:21:16;13.00;99.90
19728;DHT22;10015;52.530;13.390;2023-05-10T05:23:42;13.10;99.90
19728;DHT22;10015;52.530;13.390;2023-05-10T05:26:08;13.10;99.90
19728;DHT22;10015;52.530;13.390;2023-05-10T05:28:35;13.20;99.90
19728;DHT22;10015;52.530;13.390;2023-05-10T05:31:04;13.40;99.90
19728;DHT22;10015;52.530;13.390;2023-05-10T05:33:31;13.40;99.90
19728;DHT22;10015;52.530;13.390;2023-05-10T05:35:57;13.50;99.90
19728;DHT22;10015;52.530;13.390;2023-05-10T05:38:23;13.60;99.90
19728;DHT22;10015;52.530;13.390;2023-05-10T05:40:49;13.80;99.90
19728;DHT22;10015;52.530;13.390;2023-05-10T05:43:15;13.80;99.90
19728;DHT22;10015;52.530;13.390;2023-05-10T05:45:41;13.80;99.90
19728;DHT22;10015;52.530;13.390;2023-05-10T05:48:07;13.90;99.90
19728;DHT22;10015;52.530;13.390;2023-05-10T05:50:33;14.00;99.90
19728;DHT22;10015;52.530;13.390;2023-05-10T05:52:58;14.20;99.90
19728;DHT22;10015;52.530;13.390;2023-05-10T05:55:24;14.40;99.90
19728;DHT22;10015;52.530;13.390;2023-05-10T05:57:51;14.80;99.90
19728;DHT22;10015;52.530;13.390;2023-05-10T06:00:20;15.00;99.90
19728;DHT22;10015;52.530;13.390;2023-05-10T06:02:47;15.20;99.90
19728;DHT22;10015;52.530;13.390;2023-05-10T06:05:13;15.30;99.90
19728;DHT22;10015;52.530;13.390;2023-05-10T06:07:39;15.30;99.90
19728;DHT22;10015;52.530;13.390;2023-05-10T06:10:08;15.40;99.90
19728;DHT22;10015;52.530;13.390;2023-05-10T06:12:34;15.50;99.90
19728;DHT22;10015;52.530;13.390;2023-05-10T06:15:00;15.60;99.90
19728;DHT22;10015;52.530;13.390;2023-05-10T06:17:26;15.70;99.90
19728;DHT22;10015;52.530;13.390;2023-05-10T06:19:53;15.70;99.90
19728;DHT22;10015;52.530;13.390;2023-05-10T06:22:19;15.50;99.90
19728;DHT22;10015;52.530;13.390;2023-05-10T06:24:45;15.50;99.90
19728;DHT22;10015;52.530;13.390;2023-05-10T06:27:11;15.70;99.90
19728;DHT22;10015;52.530;13.390;2023-05-10T06:29:37;16.00;99.90
19728;DHT22;10015;52.530;13.390;2023-05-10T06:32:03;16.00;99.90
19728;DHT22;10015;52.530;13.390;2023-05-10T06:34:29;15.90;99.90
19728;DHT22;10015;52.530;13.390;2023-05-10T06:36:55;15.90;99.90
19728;DHT22;10015;52.530;13.390;2023-05-10T06:39:21;16.10;99.90
19728;DHT22;10015;52.530;13.390;2023-05-10T06:41:47;16.20;99.90
19728;DHT22;10015;52.530;13.390;2023-05-10T06:44:13;16.20;99.90
19728;DHT22;10015;52.530;13.390;2023-05-10T06:46:38;16.30;99.90
19728;DHT22;10015;52.530;13.390;2023-05-10T06:49:04;16.50;99.90
19728;DHT22;10015;52.530;13.390;2023-05-10T06:51:30;16.60;99.90
19728;DHT22;10015;52.530;13.390;2023-05-10T06:53:59;16.60;99.90
19728;DHT22;10015;52.530;13.390;2023-05-10T06:56:25;16.40;99.90
19728;DHT22;10015;52.530;13.390;2023-05-10T06:58:51;16.50;99.90
19728;DHT22;10015;52.530;13.390;2023-05-10T07:01:17;16.50;99.90
19728;DHT22;10015;52.530;13.390;2023-05-10T07:03:43;16.60;99.90
19728;DHT22;10015;52.530;13.390;2023-05-10T07:06:09;16.60;99.90
19728;DHT22;10015;52.530;13.390;2023-05-10T07:08:35;16.50;99.90
19728;DHT22;10015;52.530;13.390;2023-05-10T07:11:05;16.50;99.90
19728;DHT22;10015;52.530;13.390;2023-05-10T07:13:33;16.60;99.90
19728;DHT22;10015;52.530;13.390;2023-05-10T07:16:00;16.80;99.90
19728;DHT22;10015;52.530;13.390;2023-05-10T07:18:28;17.00;99.90
19728;DHT22;10015;52.530;13.390;2023-05-10T07:20:54;17.10;99.90
19728;DHT22;10015;52.530;13.390;2023-05-10T07:23:20;17.30;99.90
19728;DHT22;10015;52.530;13.390;2023-05-10T07:25:47;17.30;99.90
19728;DHT22;10015;52.530;13.390;2023-05-10T07:28:14;17.50;99.90
19728;DHT22;10015;52.530;13.390;2023-05-10T07:30:40;17.70;99.90
19728;DHT22;10015;52.530;13.390;2023-05-10T07:33:07;17.70;99.90
19728;DHT22;10015;52.530;13.390;2023-05-10T07:35:34;17.60;99.90
19728;DHT22;10015;52.530;13.390;2023-05-10T07:38:01;17.60;99.90
19728;DHT22;10015;52.530;13.390;2023-05-10T07:40:28;17.60;99.90
19728;DHT22;10015;52.530;13.390;2023-05-10T07:42:54;17.70;99.90
19728;DHT22;10015;52.530;13.390;2023-05-10T07:45:20;17.70;99.90
19728;DHT22;10015;52.530;13.390;2023-05-10T07:47:46;17.80;99.90
19728;DHT22;10015;52.530;13.390;2023-05-10T07:50:12;17.80;99.90
19728;DHT22;10015;52.530;13.390;2023-05-10T07:52:38;17.90;99.90
19728;DHT22;10015;52.530;13.390;2023-05-10T07:55:04;18.10;99.90
19728;DHT22;10015;52.530;13.390;2023-05-10T07:57:30;18.20;99.90
19728;DHT22;10015;52.530;13.390;2023-05-10T07:59:56;18.40;99.90
19728;DHT22;10015;52.530;13.390;2023-05-10T08:02:22;18.60;99.90
19728;DHT22;10015;52.530;13.390;2023-05-10T08:04:48;18.70;99.90
19728;DHT22;10015;52.530;13.390;2023-05-10T08:07:14;18.70;99.90
19728;DHT22;10015;52.530;13.390;2023-05-10T08:09:40;18.60;99.90
19728;DHT22;10015;52.530;13.390;2023-05-10T08:12:06;18.80;99.90
19728;DHT22;10015;52.530;13.390;2023-05-10T08:14:32;18.90;99.90
19728;DHT22;10015;52.530;13.390;2023-05-10T08:16:58;18.80;99.90
19728;DHT22;10015;52.530;13.390;2023-05-10T08:19:24;19.00;99.90
19728;DHT22;10015;52.530;13.390;2023-05-10T08:21:50;19.20;99.90
19728;DHT22;10015;52.530;13.390;2023-05-10T08:24:16;19.30;99.90
19728;DHT22;10015;52.530;13.390;2023-05-10T08:26:42;19.30;99.90
19728;DHT22;10015;52.530;13.390;2023-05-10T08:29:08;19.40;99.90
19728;DHT22;10015;52.530;13.390;2023-05-10T08:31:34;19.40;99.90
19728;DHT22;10015;52.530;13.390;2023-05-10T08:34:00;19.40;99.90
19728;DHT22;10015;52.530;13.390;2023-05-10T08:36:26;19.50;99.90
19728;DHT22;10015;52.530;13.390;2023-05-10T08:38:54;19.70;99.90
19728;DHT22;10015;52.530;13.390;2023-05-10T08:41:20;19.70;99.90
19728;DHT22;10015;52.530;13.390;2023-05-10T08:43:47;19.60;99.90
19728;DHT22;10015;52.530;13.390;2023-05-10T08:46:18;19.50;99.90
19728;DHT22;10015;52.530;13.390;2023-05-10T08:48:45;19.50;99.90
19728;DHT22;10015;52.530;13.390;2023-05-10T08:51:19;19.60;99.90
19728;DHT22;10015;52.530;13.390;2023-05-10T08:53:45;19.70;99.90
19728;DHT22;10015;52.530;13.390;2023-05-10T08:56:11;19.80;99.90
19728;DHT22;10015;52.530;13.390;2023-05-10T08:58:38;19.70;99.90
19728;DHT22;10015;52.530;13.390;2023-05-10T09:01:05;19.90;99.90
19728;DHT22;10015;52.530;13.390;2023-05-10T09:03:31;20.30;99.90
19728;DHT22;10015;52.530;13.390;2023-05-10T09:05:58;20.30;99.90
19728;DHT22;10015;52.530;13.390;2023-05-10T09:08:25;20.50;99.90
19728;DHT22;10015;52.530;13.390;2023-05-10T09:10:51;20.50;99.90
19728;DHT22;10015;52.530;13.390;2023-05-10T09:13:18;20.60;99.90
19728;DHT22;10015;52.530;13.390;2023-05-10T09:15:45;20.70;99.90
19728;DHT22;10015;52.530;13.390;2023-05-10T09:18:12;20.70;99.90
19728;DHT22;10015;52.530;13.390;2023-05-10T09:20:38;20.80;99.90
19728;DHT22;10015;52.530;13.390;2023-05-10T09:23:04;20.70;99.90
19728;DHT22;10015;52.530;13.390;2023-05-10T09:25:30;20.70;99.90
19728;DHT22;10015;52.530;13.390;2023-05-10T09:27:59;20.90;99.90
19728;DHT22;10015;52.530;13.390;2023-05-10T09:30:29;21.00;99.90
19728;DHT22;10015;52.530;13.390;2023-05-10T09:32:57;21.20;99.90
19728;DHT22;10015;52.530;13.390;2023-05-10T09:35:25;21.20;99.90
19728;DHT22;10015;52.530;13.390;2023-05-10T09:37:53;20.70;99.90
19728;DHT22;10015;52.530;13.390;2023-05-10T09:40:25;20.50;99.90
19728;DHT22;10015;52.530;13.390;2023-05-10T09:42:59;20.70;99.90
19728;DHT22;10015;52.530;13.390;2023-05-10T09:45:30;20.90;99.90
19728;DHT22;10015;52.530;13.390;2023-05-10T09:47:57;21.00;99.90
19728;DHT22;10015;52.530;13.390;2023-05-10T09:50:23;21.00;99.90
19728;DHT22;10015;52.530;13.390;2023-05-10T09:53:00;21.10;99.90
19728;DHT22;10015;52.530;13.390;2023-05-10T09:58:00;21.20;99.90
19728;DHT22;10015;52.530;13.390;2023-05-10T10:00:27;21.40;99.90
19728;DHT22;10015;52.530;13.390;2023-05-10T10:02:58;21.20;99.90
19728;DHT22;10015;52.530;13.390;2023-05-10T10:05:31;21.20;99.90
19728;DHT22;10015;52.530;13.390;2023-05-10T10:07:59;21.30;99.90
19728;DHT22;10015;52.530;13.390;2023-05-10T10:10:26;21.20;99.90
19728;DHT22;10015;52.530;13.390;2023-05-10T10:12:54;21.20;99.90
19728;DHT22;10015;52.530;13.390;2023-05-10T10:15:23;21.30;99.90
19728;DHT22;10015;52.530;13.390;2023-05-10T10:17:51;21.30;99.90
19728;DHT22;10015;52.530;13.390;2023-05-10T10:20:18;21.30;99.90
19728;DHT22;10015;52.530;13.390;2023-05-10T10:22:44;21.40;99.90
19728;DHT22;10015;52.530;13.390;2023-05-10T10:25:13;21.30;99.90
19728;DHT22;10015;52.530;13.390;2023-05-10T10:28:05;21.30;99.90
19728;DHT22;10015;52.530;13.390;2023-05-10T10:30:46;21.30;99.90
19728;DHT22;10015;52.530;13.390;2023-05-10T10:33:36;21.40;99.90
19728;DHT22;10015;52.530;13.390;2023-05-10T10:36:03;21.60;99.90
19728;DHT22;10015;52.530;13.390;2023-05-10T10:50:03;21.90;98.70
19728;DHT22;10015;52.530;13.390;2023-05-10T10:52:37;21.80;98.70
19728;DHT22;10015;52.530;13.390;2023-05-10T11:00:29;22.00;98.30
19728;DHT22;10015;52.530;13.390;2023-05-10T11:02:58;22.00;98.50
19728;DHT22;10015;52.530;13.390;2023-05-10T11:07:57;22.50;98.30
19728;DHT22;10015;52.530;13.390;2023-05-10T11:10:25;22.50;98.50
19728;DHT22;10015;52.530;13.390;2023-05-10T11:13:07;22.80;98.60
19728;DHT22;10015;52.530;13.390;2023-05-10T11:15:38;22.80;97.90
19728;DHT22;10015;52.530;13.390;2023-05-10T11:18:17;22.80;97.30
19728;DHT22;10015;52.530;13.390;2023-05-10T11:20:45;22.70;97.40
19728;DHT22;10015;52.530;13.390;2023-05-10T11:23:15;22.60;97.40
19728;DHT22;10015;52.530;13.390;2023-05-10T11:25:44;22.70;97.40
19728;DHT22;10015;52.530;13.390;2023-05-10T11:28:11;22.90;97.20
19728;DHT22;10015;52.530;13.390;2023-05-10T11:30:41;22.90;96.40
19728;DHT22;10015;52.530;13.390;2023-05-10T11:33:08;22.70;96.80
19728;DHT22;10015;52.530;13.390;2023-05-10T11:35:38;22.50;96.70
19728;DHT22;10015;52.530;13.390;2023-05-10T11:38:08;22.60;97.10
19728;DHT22;10015;52.530;13.390;2023-05-10T11:40:35;22.60;96.60
19728;DHT22;10015;52.530;13.390;2023-05-10T11:43:05;22.70;96.80
19728;DHT22;10015;52.530;13.390;2023-05-10T11:45:34;22.90;96.60
19728;DHT22;10015;52.530;13.390;2023-05-10T11:48:01;23.00;96.20
19728;DHT22;10015;52.530;13.390;2023-05-10T11:50:29;23.10;96.60
19728;DHT22;10015;52.530;13.390;2023-05-10T11:52:56;23.00;96.30
19728;DHT22;10015;52.530;13.390;2023-05-10T11:55:23;23.10;96.70
19728;DHT22;10015;52.530;13.390;2023-05-10T11:57:53;23.20;96.50
19728;DHT22;10015;52.530;13.390;2023-05-10T12:00:19;23.20;95.70
19728;DHT22;10015;52.530;13.390;2023-05-10T12:02:45;23.00;95.80
19728;DHT22;10015;52.530;13.390;2023-05-10T12:05:13;23.00;95.60
19728;DHT22;10015;52.530;13.390;2023-05-10T12:07:40;23.10;95.20
19728;DHT22;10015;52.530;13.390;2023-05-10T12:10:07;23.10;95.20
19728;DHT22;10015;52.530;13.390;2023-05-10T12:12:43;22.90;95.50
19728;DHT22;10015;52.530;13.390;2023-05-10T12:15:19;22.90;95.80
19728;DHT22;10015;52.530;13.390;2023-05-10T12:17:46;22.80;95.40
19728;DHT22;10015;52.530;13.390;2023-05-10T12:20:13;22.70;95.50
19728;DHT22;10015;52.530;13.390;2023-05-10T12:22:40;22.80;95.40
19728;DHT22;10015;52.530;13.390;2023-05-10T12:25:08;22.90;95.60
19728;DHT22;10015;52.530;13.390;2023-05-10T12:27:34;23.10;94.50
19728;DHT22;10015;52.530;13.390;2023-05-10T12:30:00;22.90;94.50
19728;DHT22;10015;52.530;13.390;2023-05-10T12:32:39;23.10;94.50
19728;DHT22;10015;52.530;13.390;2023-05-10T12:35:06;23.10;94.70
19728;DHT22;10015;52.530;13.390;2023-05-10T12:37:32;23.10;94.60
19728;DHT22;10015;52.530;13.390;2023-05-10T12:40:01;23.10;94.80
19728;DHT22;10015;52.530;13.390;2023-05-10T12:42:28;23.30;94.10
19728;DHT22;10015;52.530;13.390;2023-05-10T12:44:56;23.30;94.10
19728;DHT22;10015;52.530;13.390;2023-05-10T12:47:22;23.40;94.50
19728;DHT22;10015;52.530;13.390;2023-05-10T12:49:48;23.60;94.60
19728;DHT22;10015;52.530;13.390;2023-05-10T12:52:14;23.40;94.30
19728;DHT22;10015;52.530;13.390;2023-05-10T12:54:40;23.30;94.70
19728;DHT22;10015;52.530;13.390;2023-05-10T12:57:05;23.30;94.90
19728;DHT22;10015;52.530;13.390;2023-05-10T12:59:31;23.30;95.20
19728;DHT22;10015;52.530;13.390;2023-05-10T13:01:58;23.10;94.60
19728;DHT22;10015;52.530;13.390;2023-05-10T13:04:24;23.10;94.80
19728;DHT22;10015;52.530;13.390;2023-05-10T13:06:49;23.00;93.40
19728;DHT22;10015;52.530;13.390;2023-05-10T13:09:15;22.90;93.50
19728;DHT22;10015;52.530;13.390;2023-05-10T13:11:41;22.80;93.40
19728;DHT22;10015;52.530;13.390;2023-05-10T13:14:07;22.70;93.60
19728;DHT22;10015;52.530;13.390;2023-05-10T13:16:33;22.80;94.00
19728;DHT22;10015;52.530;13.390;2023-05-10T13:18:59;22.80;94.20
19728;DHT22;10015;52.530;13.390;2023-05-10T13:21:25;23.00;94.80
19728;DHT22;10015;52.530;13.390;2023-05-10T13:23:51;23.10;94.50
19728;DHT22;10015;52.530;13.390;2023-05-10T13:26:17;23.10;93.00
19728;DHT22;10015;52.530;13.390;2023-05-10T13:28:43;23.10;93.30
19728;DHT22;10015;52.530;13.390;2023-05-10T13:31:09;23.00;93.20
19728;DHT22;10015;52.530;13.390;2023-05-10T13:33:35;22.90;93.40
19728;DHT22;10015;52.530;13.390;2023-05-10T13:36:01;22.90;93.80
19728;DHT22;10015;52.530;13.390;2023-05-10T13:38:27;22.90;94.00
19728;DHT22;10015;52.530;13.390;2023-05-10T13:40:53;22.80;94.10
19728;DHT22;10015;52.530;13.390;2023-05-10T13:43:19;22.70;93.90
19728;DHT22;10015;52.530;13.390;2023-05-10T13:45:45;22.70;94.00
19728;DHT22;10015;52.530;13.390;2023-05-10T13:48:11;22.90;94.00
19728;DHT22;10015;52.530;13.390;2023-05-10T13:50:37;23.00;94.00
19728;DHT22;10015;52.530;13.390;2023-05-10T13:53:04;23.20;93.70
19728;DHT22;10015;52.530;13.390;2023-05-10T13:55:30;23.40;93.60
19728;DHT22;10015;52.530;13.390;2023-05-10T13:58:00;23.70;93.40
19728;DHT22;10015;52.530;13.390;2023-05-10T14:00:26;23.60;93.10
19728;DHT22;10015;52.530;13.390;2023-05-10T14:02:53;23.40;92.90
19728;DHT22;10015;52.530;13.390;2023-05-10T14:05:19;23.30;92.90
19728;DHT22;10015;52.530;13.390;2023-05-10T14:07:45;23.30;92.70
19728;DHT22;10015;52.530;13.390;2023-05-10T14:10:10;23.30;92.10
19728;DHT22;10015;52.530;13.390;2023-05-10T14:12:36;23.20;91.80
19728;DHT22;10015;52.530;13.390;2023-05-10T14:15:05;23.30;92.00
19728;DHT22;10015;52.530;13.390;2023-05-10T14:17:32;23.30;91.90
19728;DHT22;10015;52.530;13.390;2023-05-10T14:19:58;23.40;92.10
19728;DHT22;10015;52.530;13.390;2023-05-10T14:22:24;23.60;92.20
19728;DHT22;10015;52.530;13.390;2023-05-10T14:24:50;23.60;92.10
19728;DHT22;10015;52.530;13.390;2023-05-10T14:27:16;23.60;92.10
19728;DHT22;10015;52.530;13.390;2023-05-10T14:29:42;23.60;91.60
19728;DHT22;10015;52.530;13.390;2023-05-10T14:32:08;23.40;91.80
19728;DHT22;10015;52.530;13.390;2023-05-10T14:34:34;23.20;91.30
19728;DHT22;10015;52.530;13.390;2023-05-10T14:37:00;23.10;91.10
19728;DHT22;10015;52.530;13.390;2023-05-10T14:39:25;23.10;90.90
19728;DHT22;10015;52.530;13.390;2023-05-10T14:41:55;23.20;90.50
19728;DHT22;10015;52.530;13.390;2023-05-10T14:44:21;23.10;90.40
19728;DHT22;10015;52.530;13.390;2023-05-10T14:46:47;23.00;90.50
19728;DHT22;10015;52.530;13.390;2023-05-10T14:49:14;23.00;90.50
19728;DHT22;10015;52.530;13.390;2023-05-10T14:51:39;22.90;91.00
19728;DHT22;10015;52.530;13.390;2023-05-10T14:54:05;23.00;91.20
19728;DHT22;10015;52.530;13.390;2023-05-10T14:56:31;23.10;91.50
19728;DHT22;10015;52.530;13.390;2023-05-10T14:58:57;23.20;91.30
19728;DHT22;10015;52.530;13.390;2023-05-10T15:01:23;23.10;91.20
19728;DHT22;10015;52.530;13.390;2023-05-10T15:03:49;22.90;91.20
19728;DHT22;10015;52.530;13.390;2023-05-10T15:06:16;22.80;91.20
19728;DHT22;10015;52.530;13.390;2023-05-10T15:08:42;22.80;91.20
19728;DHT22;10015;52.530;13.390;2023-05-10T15:11:08;22.90;91.00
19728;DHT22;10015;52.530;13.390;2023-05-10T15:13:33;23.00;91.30
19728;DHT22;10015;52.530;13.390;2023-05-10T15:15:59;23.00;91.60
19728;DHT22;10015;52.530;13.390;2023-05-10T15:18:25;22.90;91.70
19728;DHT22;10015;52.530;13.390;2023-05-10T15:20:51;22.90;91.60
19728;DHT22;10015;52.530;13.390;2023-05-10T15:23:17;22.90;91.10
19728;DHT22;10015;52.530;13.390;2023-05-10T15:25:43;22.70;91.30
19728;DHT22;10015;52.530;13.390;2023-05-10T15:28:09;22.60;91.70
19728;DHT22;10015;52.530;13.390;2023-05-10T15:30:35;22.50;91.70
19728;DHT22;10015;52.530;13.390;2023-05-10T15:33:01;22.40;91.90
19728;DHT22;10015;52.530;13.390;2023-05-10T15:35:27;22.20;92.00
19728;DHT22;10015;52.530;13.390;2023-05-10T15:37:53;22.20;92.00
19728;DHT22;10015;52.530;13.390;2023-05-10T15:40:19;22.10;91.90
19728;DHT22;10015;52.530;13.390;2023-05-10T15:42:45;22.10;92.10
19728;DHT22;10015;52.530;13.390;2023-05-10T15:45:11;22.10;92.00
19728;DHT22;10015;52.530;13.390;2023-05-10T15:47:37;22.10;92.10
19728;DHT22;10015;52.530;13.390;2023-05-10T15:50:06;22.20;92.00
19728;DHT22;10015;52.530;13.390;2023-05-10T15:52:32;22.20;92.40